sensor_id;sensor_type;location;lat;lon;timestamp;pressure;altitude;pressure_sealevel;temperature
18713;BMP280;9485;49.386;8.674;2023-06-22T00:04:20;100346.09;;;25.96
18713;BMP280;9485;49.386;8.674;2023-06-22T00:09:41;100346.25;;;25.98
18713;BMP280;9485;49.386;8.674;2023-06-22T00:15:02;100357.50;;;26.03
18713;BMP280;9485;49.386;8.674;2023-06-22T00:20:24;100373.69;;;26.06
18713;BMP280;9485;49.386;8.674;2023-06-22T00:25:47;100365.16;;;26.08
18713;BMP280;9485;49.386;8.674;2023-06-22T00:31:07;100379.16;;;26.02
18713;BMP280;9485;49.386;8.674;2023-06-22T00:36:29;100392.44;;;25.79
18713;BMP280;9485;49.386;8.674;2023-06-22T00:41:50;100422.31;;;25.55
18713;BMP280;9485;49.386;8.674;2023-06-22T00:47:13;100536.81;;;25.41
18713;BMP280;9485;49.386;8.674;2023-06-22T00:52:37;100690.09;;;25.34
18713;BMP280;9485;49.386;8.674;2023-06-22T00:58:04;100718.91;;;25.24
18713;BMP280;9485;49.386;8.674;2023-06-22T01:03:27;100454.53;;;25.25
18713;BMP280;9485;49.386;8.674;2023-06-22T01:09:06;100409.94;;;24.85
18713;BMP280;9485;49.386;8.674;2023-06-22T01:14:39;100291.41;;;24.16
18713;BMP280;9485;49.386;8.674;2023-06-22T01:20:05;100228.91;;;23.84
18713;BMP280;9485;49.386;8.674;2023-06-22T01:25:42;100377.47;;;23.85
18713;BMP280;9485;49.386;8.674;2023-06-22T01:31:07;100471.94;;;23.77
18713;BMP280;9485;49.386;8.674;2023-06-22T01:36:31;100467.53;;;23.69
18713;BMP280;9485;49.386;8.674;2023-06-22T01:41:54;100455.69;;;23.57
18713;BMP280;9485;49.386;8.674;2023-06-22T01:47:17;100443.84;;;23.46
18713;BMP280;9485;49.386;8.674;2023-06-22T01:52:38;100450.44;;;23.39
18713;BMP280;9485;49.386;8.674;2023-06-22T01:57:59;100430.31;;;23.32
18713;BMP280;9485;49.386;8.674;2023-06-22T02:03:26;100433.59;;;23.28
18713;BMP280;9485;49.386;8.674;2023-06-22T02:08:53;100447.88;;;23.19
18713;BMP280;9485;49.386;8.674;2023-06-22T02:14:16;100455.19;;;22.97
18713;BMP280;9485;49.386;8.674;2023-06-22T02:19:41;100436.44;;;22.89
18713;BMP280;9485;49.386;8.674;2023-06-22T02:25:02;100433.91;;;22.93
18713;BMP280;9485;49.386;8.674;2023-06-22T02:30:23;100423.97;;;22.86
18713;BMP280;9485;49.386;8.674;2023-06-22T02:35:45;100436.44;;;22.89
18713;BMP280;9485;49.386;8.674;2023-06-22T02:41:08;100408.97;;;22.88
18713;BMP280;9485;49.386;8.674;2023-06-22T02:46:32;100400.00;;;22.84
18713;BMP280;9485;49.386;8.674;2023-06-22T02:51:54;100400.78;;;22.77
18713;BMP280;9485;49.386;8.674;2023-06-22T02:57:15;100406.16;;;22.73
18713;BMP280;9485;49.386;8.674;2023-06-22T03:02:36;100387.19;;;22.63
18713;BMP280;9485;49.386;8.674;2023-06-22T03:07:58;100375.16;;;22.49
18713;BMP280;9485;49.386;8.674;2023-06-22T03:13:23;100385.50;;;22.52
18713;BMP280;9485;49.386;8.674;2023-06-22T03:18:45;100371.91;;;22.45
18713;BMP280;9485;49.386;8.674;2023-06-22T03:24:08;100353.69;;;22.43
18713;BMP280;9485;49.386;8.674;2023-06-22T03:29:28;100356.03;;;22.37
18713;BMP280;9485;49.386;8.674;2023-06-22T03:34:49;100351.41;;;22.41
18713;BMP280;9485;49.386;8.674;2023-06-22T03:40:12;100356.22;;;22.39
18713;BMP280;9485;49.386;8.674;2023-06-22T03:45:33;100367.16;;;22.33
18713;BMP280;9485;49.386;8.674;2023-06-22T03:50:54;100374.44;;;22.34
18713;BMP280;9485;49.386;8.674;2023-06-22T03:56:16;100359.09;;;22.39
18713;BMP280;9485;49.386;8.674;2023-06-22T04:01:39;100363.69;;;22.34
18713;BMP280;9485;49.386;8.674;2023-06-22T04:07:00;100365.63;;;22.32
18713;BMP280;9485;49.386;8.674;2023-06-22T04:12:23;100360.81;;;22.34
18713;BMP280;9485;49.386;8.674;2023-06-22T04:17:44;100351.41;;;22.41
18713;BMP280;9485;49.386;8.674;2023-06-22T04:23:05;100347.16;;;22.50
18713;BMP280;9485;49.386;8.674;2023-06-22T04:28:27;100345.97;;;22.60
18713;BMP280;9485;49.386;8.674;2023-06-22T04:33:52;100315.25;;;22.63
18713;BMP280;9485;49.386;8.674;2023-06-22T04:39:15;100321.72;;;22.70
18713;BMP280;9485;49.386;8.674;2023-06-22T04:44:37;100314.38;;;22.84
18713;BMP280;9485;49.386;8.674;2023-06-22T04:50:00;100310.88;;;22.93
18713;BMP280;9485;49.386;8.674;2023-06-22T04:55:25;100325.63;;;22.97
18713;BMP280;9485;49.386;8.674;2023-06-22T05:00:48;100312.69;;;23.13
18713;BMP280;9485;49.386;8.674;2023-06-22T05:06:12;100301.66;;;23.27
18713;BMP280;9485;49.386;8.674;2023-06-22T05:11:34;100299.31;;;23.57
18713;BMP280;9485;49.386;8.674;2023-06-22T05:16:57;100308.69;;;23.82
18713;BMP280;9485;49.386;8.674;2023-06-22T05:22:23;100311.63;;;24.16
18713;BMP280;9485;49.386;8.674;2023-06-22T05:27:44;100288.28;;;24.38
18713;BMP280;9485;49.386;8.674;2023-06-22T05:33:07;100278.63;;;24.43
18713;BMP280;9485;49.386;8.674;2023-06-22T05:38:28;100292.88;;;24.58
18713;BMP280;9485;49.386;8.674;2023-06-22T05:43:49;100283.41;;;24.74
18713;BMP280;9485;49.386;8.674;2023-06-22T05:49:14;100278.88;;;25.07
18713;BMP280;9485;49.386;8.674;2023-06-22T05:54:37;100277.63;;;25.27
18713;BMP280;9485;49.386;8.674;2023-06-22T05:59:58;100262.34;;;25.43
18713;BMP280;9485;49.386;8.674;2023-06-22T06:05:20;100269.09;;;25.65
18713;BMP280;9485;49.386;8.674;2023-06-22T06:10:40;100281.66;;;25.86
18713;BMP280;9485;49.386;8.674;2023-06-22T06:16:01;100262.03;;;25.94
18713;BMP280;9485;49.386;8.674;2023-06-22T06:21:23;100292.97;;;26.20
18713;BMP280;9485;49.386;8.674;2023-06-22T06:26:44;100284.31;;;26.39
18713;BMP280;9485;49.386;8.674;2023-06-22T06:32:05;100281.25;;;26.65
18713;BMP280;9485;49.386;8.674;2023-06-22T06:37:27;100288.81;;;26.89
18713;BMP280;9485;49.386;8.674;2023-06-22T06:42:49;100294.13;;;27.11
18713;BMP280;9485;49.386;8.674;2023-06-22T06:48:10;100289.94;;;27.33
18713;BMP280;9485;49.386;8.674;2023-06-22T06:53:33;100271.50;;;27.59
18713;BMP280;9485;49.386;8.674;2023-06-22T06:58:54;100277.78;;;27.86
18713;BMP280;9485;49.386;8.674;2023-06-22T07:04:15;100264.84;;;28.19
18713;BMP280;9485;49.386;8.674;2023-06-22T07:09:37;100257.22;;;28.56
18713;BMP280;9485;49.386;8.674;2023-06-22T07:15:03;100259.91;;;28.63
18713;BMP280;9485;49.386;8.674;2023-06-22T07:20:24;100273.03;;;28.96
18713;BMP280;9485;49.386;8.674;2023-06-22T07:25:47;100261.56;;;30.13
18713;BMP280;9485;49.386;8.674;2023-06-22T07:31:09;100255.56;;;31.73
18713;BMP280;9485;49.386;8.674;2023-06-22T07:36:30;100249.09;;;33.01
18713;BMP280;9485;49.386;8.674;2023-06-22T07:41:52;100253.53;;;33.95
18713;BMP280;9485;49.386;8.674;2023-06-22T07:47:13;100246.13;;;34.94
18713;BMP280;9485;49.386;8.674;2023-06-22T07:52:35;100279.81;;;34.93
18713;BMP280;9485;49.386;8.674;2023-06-22T07:57:57;100271.38;;;36.97
18713;BMP280;9485;49.386;8.674;2023-06-22T08:03:19;100292.25;;;37.98
18713;BMP280;9485;49.386;8.674;2023-06-22T08:08:40;100264.56;;;38.91
18713;BMP280;9485;49.386;8.674;2023-06-22T08:14:03;100251.41;;;39.92
18713;BMP280;9485;49.386;8.674;2023-06-22T08:19:24;100268.50;;;40.72
18713;BMP280;9485;49.386;8.674;2023-06-22T08:24:45;100259.41;;;40.23
18713;BMP280;9485;49.386;8.674;2023-06-22T08:30:10;100251.50;;;41.20
18713;BMP280;9485;49.386;8.674;2023-06-22T08:35:31;100253.56;;;42.16
18713;BMP280;9485;49.386;8.674;2023-06-22T08:40:53;100247.50;;;42.75
18713;BMP280;9485;49.386;8.674;2023-06-22T08:46:16;100252.22;;;43.08
18713;BMP280;9485;49.386;8.674;2023-06-22T08:51:41;100252.53;;;43.59
18713;BMP280;9485;49.386;8.674;2023-06-22T08:57:04;100248.72;;;43.41
18713;BMP280;9485;49.386;8.674;2023-06-22T09:02:27;100254.91;;;42.74
18713;BMP280;9485;49.386;8.674;2023-06-22T09:07:50;100269.00;;;42.06
18713;BMP280;9485;49.386;8.674;2023-06-22T09:13:11;100283.25;;;40.31
18713;BMP280;9485;49.386;8.674;2023-06-22T09:18:34;100275.22;;;38.20
18713;BMP280;9485;49.386;8.674;2023-06-22T09:23:55;100235.25;;;36.94
18713;BMP280;9485;49.386;8.674;2023-06-22T09:29:16;100219.59;;;36.24
18713;BMP280;9485;49.386;8.674;2023-06-22T09:34:38;100197.88;;;35.73
18713;BMP280;9485;49.386;8.674;2023-06-22T09:39:59;100176.56;;;35.33
18713;BMP280;9485;49.386;8.674;2023-06-22T09:45:20;100181.59;;;35.31
18713;BMP280;9485;49.386;8.674;2023-06-22T09:50:42;100153.72;;;35.90
18713;BMP280;9485;49.386;8.674;2023-06-22T09:56:03;100174.63;;;36.41
18713;BMP280;9485;49.386;8.674;2023-06-22T10:01:25;100166.78;;;36.71
18713;BMP280;9485;49.386;8.674;2023-06-22T10:06:47;100145.91;;;37.07
18713;BMP280;9485;49.386;8.674;2023-06-22T10:12:08;100157.50;;;37.01
18713;BMP280;9485;49.386;8.674;2023-06-22T10:17:29;100117.97;;;36.62
18713;BMP280;9485;49.386;8.674;2023-06-22T10:22:52;100133.47;;;36.41
18713;BMP280;9485;49.386;8.674;2023-06-22T10:28:13;100119.50;;;35.99
18713;BMP280;9485;49.386;8.674;2023-06-22T10:33:35;100111.97;;;35.53
18713;BMP280;9485;49.386;8.674;2023-06-22T10:38:57;100101.31;;;34.86
18713;BMP280;9485;49.386;8.674;2023-06-22T10:44:18;100102.31;;;34.38
18713;BMP280;9485;49.386;8.674;2023-06-22T10:49:40;100084.22;;;33.91
18713;BMP280;9485;49.386;8.674;2023-06-22T10:55:03;100090.19;;;34.28
18713;BMP280;9485;49.386;8.674;2023-06-22T11:00:24;100094.69;;;34.66
18713;BMP280;9485;49.386;8.674;2023-06-22T11:05:44;100087.56;;;35.10
18713;BMP280;9485;49.386;8.674;2023-06-22T11:11:08;100068.53;;;35.49
18713;BMP280;9485;49.386;8.674;2023-06-22T11:16:29;100060.34;;;35.26
18713;BMP280;9485;49.386;8.674;2023-06-22T11:21:50;100059.53;;;35.45
18713;BMP280;9485;49.386;8.674;2023-06-22T11:27:12;100064.91;;;36.13
18713;BMP280;9485;49.386;8.674;2023-06-22T11:32:34;100060.13;;;36.25
18713;BMP280;9485;49.386;8.674;2023-06-22T11:37:55;100057.28;;;35.85
18713;BMP280;9485;49.386;8.674;2023-06-22T11:43:18;100060.22;;;35.85
18713;BMP280;9485;49.386;8.674;2023-06-22T11:48:38;100049.47;;;35.93
18713;BMP280;9485;49.386;8.674;2023-06-22T11:53:59;100049.44;;;36.36
18713;BMP280;9485;49.386;8.674;2023-06-22T11:59:21;100052.13;;;36.49
18713;BMP280;9485;49.386;8.674;2023-06-22T12:04:42;100048.63;;;35.89
18713;BMP280;9485;49.386;8.674;2023-06-22T12:10:03;100053.06;;;35.68
18713;BMP280;9485;49.386;8.674;2023-06-22T12:15:26;100054.00;;;35.53
18713;BMP280;9485;49.386;8.674;2023-06-22T12:20:47;100053.56;;;35.22
18713;BMP280;9485;49.386;8.674;2023-06-22T12:26:08;100058.00;;;35.23
18713;BMP280;9485;49.386;8.674;2023-06-22T12:31:31;100060.84;;;35.60
18713;BMP280;9485;49.386;8.674;2023-06-22T12:36:51;100064.44;;;36.44
18713;BMP280;9485;49.386;8.674;2023-06-22T12:42:14;100047.72;;;36.97
18713;BMP280;9485;49.386;8.674;2023-06-22T12:47:36;100045.91;;;37.11
18713;BMP280;9485;49.386;8.674;2023-06-22T12:52:57;100054.88;;;36.90
18713;BMP280;9485;49.386;8.674;2023-06-22T12:58:18;100064.28;;;36.40
18713;BMP280;9485;49.386;8.674;2023-06-22T13:03:41;100083.13;;;35.67
18713;BMP280;9485;49.386;8.674;2023-06-22T13:09:02;100096.84;;;35.22
18713;BMP280;9485;49.386;8.674;2023-06-22T13:14:24;100083.66;;;35.22
18713;BMP280;9485;49.386;8.674;2023-06-22T13:19:46;100077.66;;;35.79
18713;BMP280;9485;49.386;8.674;2023-06-22T13:25:08;100058.66;;;35.82
18713;BMP280;9485;49.386;8.674;2023-06-22T13:30:31;100049.13;;;36.03
18713;BMP280;9485;49.386;8.674;2023-06-22T13:35:53;100044.91;;;35.88
18713;BMP280;9485;49.386;8.674;2023-06-22T13:41:14;100045.06;;;35.71
18713;BMP280;9485;49.386;8.674;2023-06-22T13:46:36;100007.50;;;35.67
18713;BMP280;9485;49.386;8.674;2023-06-22T13:51:59;99999.03;;;36.22
18713;BMP280;9485;49.386;8.674;2023-06-22T13:57:24;99994.22;;;36.09
18713;BMP280;9485;49.386;8.674;2023-06-22T14:02:45;99987.53;;;35.85
18713;BMP280;9485;49.386;8.674;2023-06-22T14:08:09;99983.72;;;35.59
18713;BMP280;9485;49.386;8.674;2023-06-22T14:13:30;99990.78;;;35.31
18713;BMP280;9485;49.386;8.674;2023-06-22T14:18:52;99978.09;;;35.05
18713;BMP280;9485;49.386;8.674;2023-06-22T14:24:16;99988.03;;;34.77
18713;BMP280;9485;49.386;8.674;2023-06-22T14:29:37;99985.94;;;34.60
18713;BMP280;9485;49.386;8.674;2023-06-22T14:34:59;99984.38;;;34.40
18713;BMP280;9485;49.386;8.674;2023-06-22T14:40:21;99959.34;;;34.17
18713;BMP280;9485;49.386;8.674;2023-06-22T14:45:42;99951.56;;;33.89
18713;BMP280;9485;49.386;8.674;2023-06-22T14:51:03;99949.84;;;33.64
18713;BMP280;9485;49.386;8.674;2023-06-22T14:56:27;99943.53;;;33.37
18713;BMP280;9485;49.386;8.674;2023-06-22T15:01:50;99915.81;;;33.05
18713;BMP280;9485;49.386;8.674;2023-06-22T15:07:12;99875.88;;;32.46
18713;BMP280;9485;49.386;8.674;2023-06-22T15:12:36;99872.03;;;32.26
18713;BMP280;9485;49.386;8.674;2023-06-22T15:17:57;99877.47;;;32.34
18713;BMP280;9485;49.386;8.674;2023-06-22T15:23:17;99882.28;;;32.58
18713;BMP280;9485;49.386;8.674;2023-06-22T15:28:40;99887.78;;;32.83
18713;BMP280;9485;49.386;8.674;2023-06-22T15:34:03;99901.84;;;33.04
18713;BMP280;9485;49.386;8.674;2023-06-22T15:39:25;99905.16;;;33.12
18713;BMP280;9485;49.386;8.674;2023-06-22T15:44:48;99902.13;;;33.10
18713;BMP280;9485;49.386;8.674;2023-06-22T15:50:10;99904.00;;;33.03
18713;BMP280;9485;49.386;8.674;2023-06-22T15:55:32;99908.66;;;32.93
18713;BMP280;9485;49.386;8.674;2023-06-22T16:00:56;99906.22;;;32.70
18713;BMP280;9485;49.386;8.674;2023-06-22T16:06:19;99918.84;;;32.59
18713;BMP280;9485;49.386;8.674;2023-06-22T16:11:40;99900.00;;;32.62
18713;BMP280;9485;49.386;8.674;2023-06-22T16:17:03;99883.78;;;32.44
18713;BMP280;9485;49.386;8.674;2023-06-22T16:22:25;99890.94;;;32.41
18713;BMP280;9485;49.386;8.674;2023-06-22T16:27:46;99896.09;;;32.25
18713;BMP280;9485;49.386;8.674;2023-06-22T16:33:09;99892.97;;;32.06
18713;BMP280;9485;49.386;8.674;2023-06-22T16:38:31;99893.78;;;31.93
18713;BMP280;9485;49.386;8.674;2023-06-22T16:43:53;99891.78;;;31.82
18713;BMP280;9485;49.386;8.674;2023-06-22T16:49:20;99885.38;;;31.70
18713;BMP280;9485;49.386;8.674;2023-06-22T16:54:41;99891.41;;;31.58
18713;BMP280;9485;49.386;8.674;2023-06-22T17:00:04;99893.56;;;31.58
18713;BMP280;9485;49.386;8.674;2023-06-22T17:05:31;99889.81;;;31.55
18713;BMP280;9485;49.386;8.674;2023-06-22T17:10:53;99895.00;;;31.43
18713;BMP280;9485;49.386;8.674;2023-06-22T17:16:17;99896.31;;;31.40
18713;BMP280;9485;49.386;8.674;2023-06-22T17:21:41;99903.31;;;31.49
18713;BMP280;9485;49.386;8.674;2023-06-22T17:27:03;99892.28;;;31.47
18713;BMP280;9485;49.386;8.674;2023-06-22T17:32:31;99886.34;;;31.45
18713;BMP280;9485;49.386;8.674;2023-06-22T17:37:57;99886.16;;;31.41
18713;BMP280;9485;49.386;8.674;2023-06-22T17:43:21;99893.97;;;31.37
18713;BMP280;9485;49.386;8.674;2023-06-22T17:48:48;99892.16;;;31.30
18713;BMP280;9485;49.386;8.674;2023-06-22T17:54:12;99902.19;;;31.27
18713;BMP280;9485;49.386;8.674;2023-06-22T17:59:40;99899.50;;;31.31
18713;BMP280;9485;49.386;8.674;2023-06-22T18:05:03;99916.78;;;31.27
18713;BMP280;9485;49.386;8.674;2023-06-22T18:10:31;99918.00;;;31.22
18713;BMP280;9485;49.386;8.674;2023-06-22T18:15:59;99920.09;;;31.06
18713;BMP280;9485;49.386;8.674;2023-06-22T18:21:22;99921.50;;;30.92
18713;BMP280;9485;49.386;8.674;2023-06-22T18:26:49;99900.03;;;30.85
18713;BMP280;9485;49.386;8.674;2023-06-22T18:32:12;99922.06;;;30.75
18713;BMP280;9485;49.386;8.674;2023-06-22T18:37:36;99919.25;;;30.63
18713;BMP280;9485;49.386;8.674;2023-06-22T18:43:03;99916.50;;;30.52
18713;BMP280;9485;49.386;8.674;2023-06-22T18:48:25;99911.16;;;30.35
18713;BMP280;9485;49.386;8.674;2023-06-22T18:54:02;99890.22;;;30.25
18713;BMP280;9485;49.386;8.674;2023-06-22T18:59:48;99897.78;;;30.17
18713;BMP280;9485;49.386;8.674;2023-06-22T19:05:17;99900.78;;;30.05
18713;BMP280;9485;49.386;8.674;2023-06-22T19:10:42;99900.88;;;29.94
18713;BMP280;9485;49.386;8.674;2023-06-22T19:16:06;99908.16;;;29.81
18713;BMP280;9485;49.386;8.674;2023-06-22T19:21:29;99919.63;;;29.66
18713;BMP280;9485;49.386;8.674;2023-06-22T19:26:50;99939.13;;;29.64
18713;BMP280;9485;49.386;8.674;2023-06-22T19:32:13;99979.75;;;29.62
18713;BMP280;9485;49.386;8.674;2023-06-22T19:37:35;99991.81;;;29.56
18713;BMP280;9485;49.386;8.674;2023-06-22T19:42:56;99998.66;;;29.49
18713;BMP280;9485;49.386;8.674;2023-06-22T19:48:18;99988.09;;;29.31
18713;BMP280;9485;49.386;8.674;2023-06-22T19:53:40;99991.31;;;29.12
18713;BMP280;9485;49.386;8.674;2023-06-22T19:59:09;99995.16;;;28.92
18713;BMP280;9485;49.386;8.674;2023-06-22T20:04:32;100011.56;;;28.76
18713;BMP280;9485;49.386;8.674;2023-06-22T20:10:07;100027.88;;;28.58
18713;BMP280;9485;49.386;8.674;2023-06-22T20:15:28;100046.78;;;28.36
18713;BMP280;9485;49.386;8.674;2023-06-22T20:20:51;100059.56;;;28.31
18713;BMP280;9485;49.386;8.674;2023-06-22T20:26:12;100074.19;;;28.21
18713;BMP280;9485;49.386;8.674;2023-06-22T20:31:36;100074.22;;;28.12
18713;BMP280;9485;49.386;8.674;2023-06-22T20:36:58;100082.16;;;28.00
18713;BMP280;9485;49.386;8.674;2023-06-22T20:42:19;100094.50;;;27.89
18713;BMP280;9485;49.386;8.674;2023-06-22T20:47:39;100118.34;;;27.67
18713;BMP280;9485;49.386;8.674;2023-06-22T20:53:04;100185.31;;;27.50
18713;BMP280;9485;49.386;8.674;2023-06-22T20:58:25;100205.25;;;27.35
18713;BMP280;9485;49.386;8.674;2023-06-22T21:03:46;100221.91;;;27.25
18713;BMP280;9485;49.386;8.674;2023-06-22T21:09:08;100223.06;;;27.10
18713;BMP280;9485;49.386;8.674;2023-06-22T21:14:28;100222.91;;;26.99
18713;BMP280;9485;49.386;8.674;2023-06-22T21:19:49;100237.16;;;26.76
18713;BMP280;9485;49.386;8.674;2023-06-22T21:25:14;100221.69;;;26.53
18713;BMP280;9485;49.386;8.674;2023-06-22T21:30:35;100231.59;;;26.40
18713;BMP280;9485;49.386;8.674;2023-06-22T21:35:55;100232.66;;;26.26
18713;BMP280;9485;49.386;8.674;2023-06-22T21:41:18;100233.25;;;26.15
18713;BMP280;9485;49.386;8.674;2023-06-22T21:46:39;100233.25;;;25.96
18713;BMP280;9485;49.386;8.674;2023-06-22T21:51:59;100229.13;;;25.89
18713;BMP280;9485;49.386;8.674;2023-06-22T21:57:21;100234.31;;;25.82
18713;BMP280;9485;49.386;8.674;2023-06-22T22:02:45;100235.97;;;25.75
18713;BMP280;9485;49.386;8.674;2023-06-22T22:08:06;100236.56;;;25.74
18713;BMP280;9485;49.386;8.674;2023-06-22T22:13:28;100249.31;;;25.61
18713;BMP280;9485;49.386;8.674;2023-06-22T22:18:51;100253.06;;;25.45
18713;BMP280;9485;49.386;8.674;2023-06-22T22:24:11;100261.84;;;25.37
18713;BMP280;9485;49.386;8.674;2023-06-22T22:29:34;100268.25;;;25.36
18713;BMP280;9485;49.386;8.674;2023-06-22T22:34:55;100279.16;;;25.28
18713;BMP280;9485;49.386;8.674;2023-06-22T22:40:16;100268.63;;;25.13
18713;BMP280;9485;49.386;8.674;2023-06-22T22:45:39;100253.44;;;24.96
18713;BMP280;9485;49.386;8.674;2023-06-22T22:51:00;100237.88;;;24.82
18713;BMP280;9485;49.386;8.674;2023-06-22T22:56:23;100251.03;;;24.76
18713;BMP280;9485;49.386;8.674;2023-06-22T23:01:45;100251.16;;;24.68
18713;BMP280;9485;49.386;8.674;2023-06-22T23:07:06;100260.56;;;24.69
18713;BMP280;9485;49.386;8.674;2023-06-22T23:12:26;100265.91;;;24.72
18713;BMP280;9485;49.386;8.674;2023-06-22T23:17:48;100267.69;;;24.68
18713;BMP280;9485;49.386;8.674;2023-06-22T23:23:10;100276.53;;;24.70
18713;BMP280;9485;49.386;8.674;2023-06-22T23:28:31;100289.44;;;24.69
18713;BMP280;9485;49.386;8.674;2023-06-22T23:33:54;100288.94;;;24.63
18713;BMP280;9485;49.386;8.674;2023-06-22T23:39:16;100307.38;;;24.50
18713;BMP280;9485;49.386;8.674;2023-06-22T23:44:36;100304.06;;;24.37
18713;BMP280;9485;49.386;8.674;2023-06-22T23:49:58;100327.41;;;24.31
18713;BMP280;9485;49.386;8.674;2023-06-22T23:55:20;100341.81;;;24.15
